Time;durP1;ratioP1;P1;durP2;ratioP2;P2;SDS_P1;SDS_P2;PMS_P1;PMS_P2;Temp;Humidity;BMP_temperature;BMP_pressure;BME280_temperature;BME280_humidity;BME280_pressure;Samples;Min_cycle;Max_cycle;Signal;HPM_P1;HPM_P2
2022/06/28 00:00:30;;;;;;;9.90;4.80;;;;;;;22.09;nan;100575.97;4953038;29;20038;-69
2022/06/28 00:02:55;;;;;;;10.65;4.65;;;;;;;22.05;nan;100555.41;4951994;29;20437;-69
2022/06/28 00:05:21;;;;;;;5.53;4.70;;;;;;;21.92;nan;100609.84;4934010;29;20072;-69
2022/06/28 00:07:47;;;;;;;6.72;4.63;;;;;;;21.91;nan;100586.78;4945077;29;20027;-69
2022/06/28 00:10:14;;;;;;;9.02;4.70;;;;;;;21.83;nan;100569.50;4949546;29;20035;-70
2022/06/28 00:12:40;;;;;;;10.73;5.28;;;;;;;21.70;nan;100519.38;4950748;29;20050;-70
2022/06/28 00:17:52;;;;;;;9.07;5.32;;;;;;;;;;4947389;29;20110;-70
2022/06/28 00:20:17;;;;;;;8.07;4.70;;;;;;;21.54;nan;100556.34;4952443;29;20113;-69
2022/06/28 00:22:43;;;;;;;8.55;5.00;;;;;;;21.44;nan;100568.81;4949835;28;20743;-70
2022/06/28 00:25:10;;;;;;;7.55;4.63;;;;;;;21.39;nan;100576.13;4950834;29;20042;-69
2022/06/28 00:27:36;;;;;;;7.45;4.75;;;;;;;21.32;nan;100560.41;4949304;29;20058;-70
2022/06/28 00:30:01;;;;;;;5.97;4.43;;;;;;;;;;4934416;29;20565;-69
2022/06/28 00:32:28;;;;;;;7.35;4.43;;;;;;;20.97;nan;100530.47;4951880;29;20035;-68
2022/06/28 00:34:53;;;;;;;7.80;4.72;;;;;;;21.05;nan;100539.69;4950365;29;20035;-69
2022/06/28 00:37:19;;;;;;;9.25;4.78;;;;;;;20.94;nan;100536.38;4950731;29;20375;-69
2022/06/28 00:39:44;;;;;;;8.10;4.57;;;;;;;20.95;nan;100524.59;4947820;28;20405;-68
2022/06/28 00:42:10;;;;;;;8.68;4.63;;;;;;;20.89;nan;100546.38;4949491;29;20031;-69
2022/06/28 00:44:36;;;;;;;6.68;4.40;;;;;;;;;;4950378;29;20039;-70
2022/06/28 00:47:02;;;;;;;7.82;4.45;;;;;;;20.77;nan;100549.47;4950259;29;20746;-70
2022/06/28 00:49:27;;;;;;;7.78;3.95;;;;;;;20.72;nan;100546.88;4947831;29;20046;-70
2022/06/28 00:51:56;;;;;;;6.25;4.18;;;;;;;20.58;nan;100534.19;4952056;29;20039;-70
2022/06/28 00:54:22;;;;;;;6.32;4.57;;;;;;;20.61;nan;100506.06;4949580;28;20114;-70
2022/06/28 00:56:48;;;;;;;7.30;4.35;;;;;;;20.65;nan;100551.78;4952702;29;20138;-70
2022/06/28 00:59:13;;;;;;;10.60;4.57;;;;;;;20.67;nan;100545.06;4952086;29;20050;-70
2022/06/28 01:01:39;;;;;;;5.90;4.28;;;;;;;20.59;nan;100532.31;4952754;29;20035;-70
2022/06/28 01:04:04;;;;;;;9.80;4.30;;;;;;;20.63;nan;100549.41;4938286;29;20037;-70
2022/06/28 01:06:30;;;;;;;8.25;4.30;;;;;;;20.59;nan;100549.19;4936498;29;20058;-70
2022/06/28 01:08:55;;;;;;;4.90;3.90;;;;;;;20.57;nan;100562.06;4955648;29;20429;-70
2022/06/28 01:11:21;;;;;;;6.78;4.88;;;;;;;20.42;nan;100540.81;4938433;29;20123;-71
2022/06/28 01:13:52;;;;;;;10.45;4.57;;;;;;;20.47;nan;100598.78;4954191;28;20405;-70
2022/06/28 01:16:19;;;;;;;10.68;4.00;;;;;;;20.42;nan;100534.66;4952195;29;20113;-70
2022/06/28 01:18:45;;;;;;;6.63;4.45;;;;;;;20.35;nan;100541.19;4951018;29;20038;-71
2022/06/28 01:21:15;;;;;;;9.13;4.35;;;;;;;20.30;nan;100554.59;4953072;29;20035;-70
2022/06/28 01:23:42;;;;;;;9.23;4.43;;;;;;;20.25;nan;100564.56;4939553;29;20520;-71
2022/06/28 01:26:10;;;;;;;8.73;4.20;;;;;;;20.17;nan;100544.59;4955123;29;20405;-71
2022/06/28 01:28:36;;;;;;;7.18;4.88;;;;;;;20.18;nan;100580.94;4951433;29;20102;-70
2022/06/28 01:31:02;;;;;;;11.35;4.30;;;;;;;20.09;nan;100545.25;4952659;29;20454;-70
2022/06/28 01:33:27;;;;;;;6.53;4.18;;;;;;;20.09;nan;100553.25;4954055;29;20401;-70
2022/06/28 01:35:53;;;;;;;8.13;4.78;;;;;;;20.04;nan;100523.88;4953149;29;20077;-71
2022/06/28 01:38:19;;;;;;;7.68;4.32;;;;;;;20.01;nan;100569.91;4938102;29;20043;-70
2022/06/28 01:40:46;;;;;;;5.30;3.85;;;;;;;;;;4953991;29;20490;-71
2022/06/28 01:43:13;;;;;;;8.63;4.15;;;;;;;19.84;nan;100573.03;4952864;29;20130;-71
2022/06/28 01:45:40;;;;;;;5.97;3.90;;;;;;;19.87;nan;100554.56;4934893;29;20039;-70
2022/06/28 01:48:06;;;;;;;6.45;3.97;;;;;;;19.83;nan;100558.06;4952984;29;20035;-71
2022/06/28 01:50:32;;;;;;;6.45;4.18;;;;;;;19.69;nan;100526.66;4948142;28;20046;-71
2022/06/28 01:52:57;;;;;;;6.10;3.97;;;;;;;19.71;nan;100487.09;4954283;29;20126;-70
2022/06/28 01:55:22;;;;;;;6.05;4.45;;;;;;;19.66;nan;100545.91;4952348;29;20039;-71
2022/06/28 01:57:48;;;;;;;7.95;4.00;;;;;;;19.57;nan;100555.59;4952941;29;20106;-71
2022/06/28 02:00:14;;;;;;;7.38;3.78;;;;;;;19.54;nan;100510.78;4953286;29;20126;-70
2022/06/28 02:02:39;;;;;;;4.53;3.90;;;;;;;;;;4954593;29;20110;-70
2022/06/28 02:05:05;;;;;;;7.37;4.43;;;;;;;19.52;nan;100536.97;4953936;28;20050;-70
2022/06/28 02:07:31;;;;;;;7.25;3.83;;;;;;;19.40;nan;100499.16;4949209;29;20280;-71
2022/06/28 02:09:56;;;;;;;5.82;3.85;;;;;;;19.47;nan;100547.69;4954793;29;20031;-71
2022/06/28 02:12:21;;;;;;;6.40;4.28;;;;;;;19.42;nan;100555.72;4937478;29;20362;-70
2022/06/28 02:14:47;;;;;;;7.28;4.07;;;;;;;;;;4951714;29;20513;-71
2022/06/28 02:17:12;;;;;;;6.30;4.23;;;;;;;19.39;nan;100573.09;4952493;29;20039;-71
2022/06/28 02:19:38;;;;;;;5.30;4.18;;;;;;;19.37;nan;100553.91;4952869;29;20544;-71
2022/06/28 02:22:03;;;;;;;6.38;4.00;;;;;;;;;;4952617;29;20119;-70
2022/06/28 02:24:30;;;;;;;6.85;4.22;;;;;;;19.30;nan;100564.13;4952876;29;20043;-71
2022/06/28 02:26:55;;;;;;;5.60;4.15;;;;;;;19.29;nan;100584.66;4935007;29;20043;-70
2022/06/28 02:29:20;;;;;;;5.55;3.78;;;;;;;19.28;nan;100561.72;4952282;29;20147;-70
2022/06/28 02:31:46;;;;;;;5.70;3.63;;;;;;;19.26;nan;100561.19;4954676;29;20035;-71
2022/06/28 02:40:21;;;;;;;5.53;3.92;;;;;;;19.24;nan;100567.88;4952275;29;20042;-70
2022/06/28 02:40:31;;;;;;;7.75;3.38;;;;;;;19.05;nan;100552.53;4951693;29;20050;-70
2022/06/28 02:42:50;;;;;;;7.47;4.22;;;;;;;19.13;nan;100578.66;4947120;29;20031;-70
2022/06/28 02:45:16;;;;;;;5.25;3.97;;;;;;;19.12;nan;100577.03;4951344;29;20552;-70
2022/06/28 02:47:41;;;;;;;12.82;4.65;;;;;;;;;;4941205;29;20046;-70
2022/06/28 02:50:07;;;;;;;7.30;4.30;;;;;;;19.04;nan;100566.16;4951758;29;20039;-70
2022/06/28 02:52:33;;;;;;;7.55;4.50;;;;;;;19.00;nan;100570.47;4932463;29;20269;-70
2022/06/28 02:54:58;;;;;;;9.07;4.15;;;;;;;18.99;nan;100590.22;4950791;29;20567;-71
2022/06/28 02:57:23;;;;;;;8.90;3.88;;;;;;;;;;4934118;29;20043;-69
2022/06/28 02:59:49;;;;;;;9.52;4.70;;;;;;;18.94;nan;100572.38;4951764;29;20035;-70
2022/06/28 03:02:14;;;;;;;7.78;3.55;;;;;;;;;;4950141;29;20121;-69
2022/06/28 03:04:39;;;;;;;5.85;4.30;;;;;;;18.87;nan;100594.03;4951360;29;20099;-70
2022/06/28 03:07:05;;;;;;;8.27;4.10;;;;;;;18.77;nan;100647.44;4950197;29;20050;-70
2022/06/28 03:09:30;;;;;;;6.85;4.10;;;;;;;18.80;nan;100595.41;4919852;29;20062;-69
2022/06/28 03:11:56;;;;;;;8.60;4.20;;;;;;;18.71;nan;100577.25;4951370;29;20047;-69
2022/06/28 03:14:21;;;;;;;9.35;4.55;;;;;;;18.76;nan;100587.13;4952648;29;20043;-70
2022/06/28 03:16:46;;;;;;;11.77;4.45;;;;;;;;;;4953025;28;20133;-71
2022/06/28 03:19:12;;;;;;;10.23;4.23;;;;;;;18.75;nan;100588.19;4952534;29;20039;-70
2022/06/28 03:21:37;;;;;;;6.22;4.30;;;;;;;18.71;nan;100581.78;4952780;29;20732;-70
2022/06/28 03:24:03;;;;;;;10.23;4.97;;;;;;;18.69;nan;100662.09;4949078;29;20039;-70
2022/06/28 03:26:28;;;;;;;7.40;4.78;;;;;;;18.67;nan;100632.22;4953043;29;20045;-70
2022/06/28 03:28:53;;;;;;;9.38;4.50;;;;;;;18.66;nan;100582.63;4948966;28;20044;-70
2022/06/28 03:31:19;;;;;;;10.52;4.00;;;;;;;18.66;nan;100576.50;4952235;29;20834;-70
2022/06/28 03:33:44;;;;;;;10.30;4.35;;;;;;;18.66;nan;100574.63;4952983;29;20038;-70
2022/06/28 03:36:10;;;;;;;10.43;4.28;;;;;;;18.65;nan;100575.69;4952462;29;20031;-69
2022/06/28 03:38:35;;;;;;;7.03;4.18;;;;;;;18.69;nan;100591.94;4952148;29;20070;-69
2022/06/28 03:41:00;;;;;;;10.23;4.22;;;;;;;18.72;nan;100578.03;4948375;29;20039;-70
2022/06/28 03:43:26;;;;;;;7.03;3.97;;;;;;;18.74;nan;100572.44;4951673;29;20036;-70
2022/06/28 03:45:51;;;;;;;7.40;4.28;;;;;;;;;;4953097;29;20548;-70
2022/06/28 03:48:17;;;;;;;9.53;3.47;;;;;;;18.81;nan;100572.97;4950818;29;20040;-69
2022/06/28 03:50:42;;;;;;;5.22;4.10;;;;;;;18.84;nan;100530.53;4950919;29;20032;-71
2022/06/28 03:53:07;;;;;;;7.28;3.92;;;;;;;;;;4950671;29;20133;-70
2022/06/28 03:55:33;;;;;;;7.35;3.97;;;;;;;18.86;nan;100607.63;4951729;29;20032;-71
2022/06/28 03:57:58;;;;;;;7.57;3.92;;;;;;;18.91;nan;100571.06;4950764;29;20039;-71
2022/06/28 04:00:23;;;;;;;10.13;4.88;;;;;;;18.97;nan;100585.16;4951410;29;20389;-71
2022/06/28 04:02:50;;;;;;;9.65;4.35;;;;;;;19.06;nan;100604.84;4952095;29;20393;-71
2022/06/28 04:05:15;;;;;;;8.65;4.30;;;;;;;19.10;nan;100584.53;4934217;29;20071;-71
2022/06/28 04:07:41;;;;;;;11.32;4.60;;;;;;;19.14;nan;100579.44;4935695;29;20066;-71
2022/06/28 04:10:07;;;;;;;7.75;4.30;;;;;;;19.23;nan;100601.81;4951415;29;20042;-70
2022/06/28 04:12:32;;;;;;;6.90;4.07;;;;;;;19.28;nan;100607.09;4952508;29;20035;-69
2022/06/28 04:14:58;;;;;;;8.65;4.40;;;;;;;19.36;nan;100588.91;4950859;29;20397;-70
2022/06/28 04:17:23;;;;;;;6.00;4.43;;;;;;;19.41;nan;100591.53;4947134;29;20118;-70
2022/06/28 04:19:48;;;;;;;7.10;4.45;;;;;;;19.51;nan;100610.13;4945888;29;20039;-67
2022/06/28 04:22:14;;;;;;;9.02;4.45;;;;;;;19.63;nan;100613.25;4948976;29;20037;-69
2022/06/28 04:24:39;;;;;;;17.90;4.10;;;;;;;19.72;nan;100619.59;4950697;29;20027;-69
2022/06/28 04:27:05;;;;;;;13.98;4.15;;;;;;;19.83;nan;100622.22;4949407;28;20074;-70
2022/06/28 04:29:30;;;;;;;9.88;4.00;;;;;;;19.95;nan;100622.63;4950856;28;20031;-71
2022/06/28 04:31:56;;;;;;;7.28;4.15;;;;;;;20.06;nan;100617.97;4954307;29;20516;-70
2022/06/28 04:34:22;;;;;;;6.22;3.80;;;;;;;20.20;nan;100616.22;4952624;29;20464;-70
2022/06/28 04:36:48;;;;;;;10.88;4.20;;;;;;;20.32;nan;100592.53;4952498;29;20142;-72
2022/06/28 04:39:13;;;;;;;7.38;4.15;;;;;;;20.42;nan;100605.00;4939031;29;20114;-71
2022/06/28 04:41:38;;;;;;;9.57;4.13;;;;;;;20.51;nan;100605.97;4954338;29;20078;-72
2022/06/28 04:44:04;;;;;;;10.52;4.30;;;;;;;20.62;nan;100592.50;4952316;29;20391;-71
2022/06/28 04:46:29;;;;;;;7.93;4.43;;;;;;;20.74;nan;100601.69;4938868;29;20039;-70
2022/06/28 04:48:55;;;;;;;8.68;4.20;;;;;;;20.87;nan;100596.72;4956101;29;20035;-71
2022/06/28 04:51:20;;;;;;;7.43;4.20;;;;;;;20.95;nan;100612.94;4938134;29;20109;-71
2022/06/28 04:53:47;;;;;;;10.00;3.67;;;;;;;21.08;nan;100576.59;4953364;29;20122;-70
2022/06/28 04:56:13;;;;;;;11.07;4.55;;;;;;;21.24;nan;100665.56;4954636;29;20031;-70
2022/06/28 04:58:39;;;;;;;6.95;4.32;;;;;;;21.33;nan;100612.91;4955899;29;20119;-71
2022/06/28 05:01:04;;;;;;;10.23;3.83;;;;;;;;;;4937334;29;20039;-71
2022/06/28 05:03:30;;;;;;;8.93;4.07;;;;;;;21.54;nan;100605.38;4953449;29;20035;-69
2022/06/28 05:05:56;;;;;;;7.57;3.90;;;;;;;21.59;nan;100616.00;4954608;29;20500;-71
2022/06/28 05:08:21;;;;;;;10.25;3.85;;;;;;;21.69;nan;100620.38;4954910;29;20125;-70
2022/06/28 05:10:47;;;;;;;5.47;3.67;;;;;;;;;;4954946;29;20461;-71
2022/06/28 05:13:12;;;;;;;5.78;3.80;;;;;;;21.90;nan;100620.84;4955629;29;20122;-70
2022/06/28 05:15:38;;;;;;;8.30;3.75;;;;;;;22.02;nan;100598.91;4953977;28;20063;-71
2022/06/28 05:18:03;;;;;;;11.73;3.80;;;;;;;22.14;nan;100626.03;4953840;29;20041;-72
2022/06/28 05:20:29;;;;;;;10.57;3.47;;;;;;;22.21;nan;100621.09;4951739;29;20474;-71
2022/06/28 05:22:54;;;;;;;6.20;3.45;;;;;;;22.35;nan;100610.38;4955860;29;20035;-71
2022/06/28 05:25:20;;;;;;;7.85;2.85;;;;;;;22.38;nan;100560.69;4937938;29;20393;-70
2022/06/28 05:27:46;;;;;;;9.95;3.50;;;;;;;22.55;nan;100624.47;4936175;29;20079;-70
2022/06/28 05:30:11;;;;;;;8.30;3.80;;;;;;;22.70;nan;100621.50;4954637;28;20039;-71
2022/06/28 05:32:38;;;;;;;9.13;3.33;;;;;;;22.83;nan;100636.78;4954467;29;20446;-71
2022/06/28 05:35:05;;;;;;;8.05;3.50;;;;;;;22.88;nan;100657.34;4937443;29;20102;-70
2022/06/28 05:37:31;;;;;;;12.38;3.80;;;;;;;;;;4952143;28;20047;-71
2022/06/28 05:39:56;;;;;;;7.90;3.20;;;;;;;23.18;nan;100647.88;4938098;28;20046;-71
2022/06/28 05:42:21;;;;;;;7.75;3.17;;;;;;;23.25;nan;100660.88;4953722;29;20293;-69
2022/06/28 05:44:47;;;;;;;8.13;3.50;;;;;;;23.38;nan;100627.00;4956786;29;20023;-70
2022/06/28 05:47:12;;;;;;;9.07;3.30;;;;;;;23.38;nan;100587.47;4954438;29;20062;-71
2022/06/28 05:49:38;;;;;;;6.35;3.53;;;;;;;23.56;nan;100642.94;4953568;29;20039;-70
2022/06/28 05:52:06;;;;;;;8.55;3.75;;;;;;;23.61;nan;100644.72;4954046;29;20039;-70
2022/06/28 05:54:32;;;;;;;7.88;3.15;;;;;;;23.76;nan;100662.38;4955311;29;20035;-71
2022/06/28 05:56:57;;;;;;;4.30;2.83;;;;;;;23.89;nan;100623.06;4953854;29;20363;-70
2022/06/28 05:59:27;;;;;;;16.48;3.53;;;;;;;23.96;nan;100643.03;4949636;29;20499;-71
2022/06/28 06:01:54;;;;;;;4.97;3.28;;;;;;;24.03;nan;100637.22;4951901;29;20038;-71
2022/06/28 06:04:20;;;;;;;6.70;3.40;;;;;;;24.23;nan;100660.09;4952872;29;20034;-70
2022/06/28 06:06:45;;;;;;;5.20;3.20;;;;;;;24.29;nan;100656.16;4951035;29;20039;-71
2022/06/28 06:09:11;;;;;;;7.80;3.35;;;;;;;24.03;nan;100617.59;4952982;29;20039;-71
2022/06/28 06:11:36;;;;;;;7.68;2.83;;;;;;;24.37;nan;100651.91;4953589;29;20782;-70
2022/06/28 06:14:02;;;;;;;6.55;3.25;;;;;;;24.41;nan;100664.44;4950868;29;20036;-71
2022/06/28 06:16:27;;;;;;;5.30;3.15;;;;;;;24.48;nan;100676.69;4954050;29;20375;-73
2022/06/28 06:18:53;;;;;;;6.22;3.53;;;;;;;24.59;nan;100664.50;4952487;29;20046;-70
2022/06/28 06:21:18;;;;;;;9.82;3.50;;;;;;;24.72;nan;100676.28;4954868;29;20097;-71
2022/06/28 06:23:44;;;;;;;6.95;3.10;;;;;;;24.84;nan;100663.78;4954524;29;20023;-71
2022/06/28 06:26:09;;;;;;;11.45;3.25;;;;;;;25.00;nan;100676.81;4954822;29;20035;-70
2022/06/28 06:28:35;;;;;;;9.23;3.28;;;;;;;25.06;nan;100662.06;4951119;29;20130;-71
2022/06/28 06:31:00;;;;;;;5.63;2.90;;;;;;;;;;4952162;29;20039;-71
2022/06/28 06:33:41;;;;;;;7.97;2.75;;;;;;;25.25;nan;100678.75;4952297;29;20070;-70
2022/06/28 06:36:06;;;;;;;6.85;3.00;;;;;;;25.29;nan;100661.97;4950604;29;20039;-70
2022/06/28 06:38:32;;;;;;;9.55;3.25;;;;;;;25.52;nan;100681.44;4912973;29;20538;-70
2022/06/28 06:40:59;;;;;;;5.38;3.00;;;;;;;25.56;nan;100702.06;4933941;29;20410;-70
2022/06/28 06:43:26;;;;;;;5.75;3.25;;;;;;;25.71;nan;100700.75;4946955;29;20039;-71
2022/06/28 06:45:52;;;;;;;5.32;2.70;;;;;;;25.80;nan;100709.66;4925125;29;20041;-72
2022/06/28 06:48:18;;;;;;;8.18;2.90;;;;;;;25.93;nan;100737.59;4933602;29;20114;-70
2022/06/28 06:50:44;;;;;;;6.35;3.03;;;;;;;25.96;nan;100707.28;4934312;29;20085;-70
2022/06/28 06:53:10;;;;;;;5.25;2.72;;;;;;;25.98;nan;100674.56;4946879;28;20050;-71
2022/06/28 06:55:36;;;;;;;5.97;2.80;;;;;;;26.12;nan;100693.25;4933022;29;20234;-71
2022/06/28 06:58:01;;;;;;;5.40;2.78;;;;;;;26.18;nan;100745.97;4933158;29;20123;-72
2022/06/28 07:00:27;;;;;;;10.95;3.80;;;;;;;26.21;nan;100719.09;4933728;29;20035;-70
2022/06/28 07:02:52;;;;;;;4.63;2.90;;;;;;;26.30;nan;100767.69;4933299;29;20042;-71
2022/06/28 07:05:18;;;;;;;4.78;2.80;;;;;;;26.35;nan;100724.28;4936917;29;20028;-72
2022/06/28 07:07:44;;;;;;;7.22;2.85;;;;;;;26.44;nan;100681.84;4930988;29;20487;-70
2022/06/28 07:10:09;;;;;;;5.38;2.45;;;;;;;26.54;nan;100705.03;4931835;29;20402;-71
2022/06/28 07:12:35;;;;;;;5.82;2.97;;;;;;;26.60;nan;100697.53;4933853;29;20035;-70
2022/06/28 07:15:00;;;;;;;7.30;3.10;;;;;;;26.65;nan;100716.25;4934809;29;20031;-71
2022/06/28 07:17:26;;;;;;;7.55;2.83;;;;;;;26.72;nan;100709.25;4930518;29;20499;-71
2022/06/28 07:19:51;;;;;;;4.28;2.65;;;;;;;26.77;nan;100705.56;4931852;29;20118;-71
2022/06/28 07:22:16;;;;;;;4.18;2.30;;;;;;;26.89;nan;100694.03;4933560;29;20562;-72
2022/06/28 07:24:42;;;;;;;3.78;2.70;;;;;;;26.95;nan;100706.22;4928240;29;20039;-70
2022/06/28 07:27:07;;;;;;;6.05;2.60;;;;;;;27.01;nan;100707.63;4929408;29;20035;-69
2022/06/28 07:29:33;;;;;;;5.72;2.60;;;;;;;27.20;nan;100715.31;4930289;29;20172;-70
2022/06/28 07:31:58;;;;;;;7.82;2.80;;;;;;;;;;4933089;29;20044;-70
2022/06/28 07:34:23;;;;;;;4.45;2.42;;;;;;;27.29;nan;100667.34;4934485;29;20031;-71
2022/06/28 07:36:50;;;;;;;7.07;2.60;;;;;;;27.45;nan;100655.94;4934944;29;20091;-69
2022/06/28 07:39:15;;;;;;;4.80;2.78;;;;;;;27.53;nan;100655.03;4913626;29;20051;-72
2022/06/28 07:41:41;;;;;;;8.82;2.50;;;;;;;27.60;nan;100678.88;4945012;29;20502;-72
2022/06/28 07:44:07;;;;;;;5.38;2.60;;;;;;;27.59;nan;100645.63;4936185;29;20082;-71
2022/06/28 07:46:32;;;;;;;4.75;2.50;;;;;;;27.73;nan;100659.63;4952373;29;20031;-70
2022/06/28 07:48:58;;;;;;;5.82;2.55;;;;;;;27.96;nan;100667.38;4951881;29;20050;-72
2022/06/28 07:54:08;;;;;;;8.70;2.55;;;;;;;28.14;nan;100673.38;4949637;29;20039;-71
2022/06/28 07:56:33;;;;;;;5.78;2.40;;;;;;;28.20;nan;100645.72;4950440;29;20039;-70
2022/06/28 07:58:59;;;;;;;7.40;3.00;;;;;;;28.27;nan;100710.16;4931492;29;20039;-70
2022/06/28 08:01:25;;;;;;;5.93;2.83;;;;;;;;;;4952074;29;20640;-71
2022/06/28 08:03:50;;;;;;;4.75;2.33;;;;;;;28.48;nan;100653.22;4930355;29;20042;-70
2022/06/28 08:06:15;;;;;;;4.88;2.75;;;;;;;28.54;nan;100659.16;4948565;29;20128;-69
2022/06/28 08:08:41;;;;;;;4.40;2.58;;;;;;;28.66;nan;100585.22;4949450;29;20122;-71
2022/06/28 08:11:08;;;;;;;8.70;2.70;;;;;;;28.75;nan;100650.91;4950031;29;20053;-72
2022/06/28 08:13:33;;;;;;;5.93;2.50;;;;;;;28.78;nan;100652.94;4934756;29;20460;-71
2022/06/28 08:15:59;;;;;;;3.92;2.58;;;;;;;28.87;nan;100661.72;4948422;29;20070;-71
2022/06/28 08:18:25;;;;;;;7.18;2.78;;;;;;;28.88;nan;100693.13;4933017;29;20059;-70
2022/06/28 08:20:50;;;;;;;5.25;2.50;;;;;;;28.96;nan;100700.34;4948405;29;20129;-70
2022/06/28 08:23:16;;;;;;;7.65;3.30;;;;;;;29.09;nan;100640.69;4937008;29;20053;-72
2022/06/28 08:25:42;;;;;;;3.90;2.70;;;;;;;29.10;nan;100667.47;4947735;29;20086;-71
2022/06/28 08:28:09;;;;;;;6.78;2.60;;;;;;;29.15;nan;100661.00;4947435;29;20039;-70
2022/06/28 08:30:34;;;;;;;2.67;2.47;;;;;;;29.14;nan;100641.25;4952959;29;20198;-70
2022/06/28 08:32:59;;;;;;;2.72;2.30;;;;;;;29.22;nan;100612.38;4950162;29;20126;-72
2022/06/28 08:35:25;;;;;;;5.72;2.22;;;;;;;29.22;nan;100675.56;4944812;29;20031;-71
2022/06/28 08:37:50;;;;;;;5.82;2.85;;;;;;;29.34;nan;100638.66;4937162;29;20074;-70
2022/06/28 08:40:16;;;;;;;4.70;2.47;;;;;;;29.47;nan;100616.56;4935261;29;20035;-72
2022/06/28 08:42:48;;;;;;;3.85;2.40;;;;;;;29.55;nan;100641.16;4947988;29;20422;-73
2022/06/28 08:45:16;;;;;;;3.85;2.20;;;;;;;29.64;nan;100639.88;4946334;29;20041;-73
2022/06/28 08:47:43;;;;;;;4.25;2.47;;;;;;;29.75;nan;100623.09;4948899;29;20500;-72
2022/06/28 08:50:17;;;;;;;4.80;2.33;;;;;;;29.82;nan;100612.41;4951021;29;20035;-73
2022/06/28 08:52:43;;;;;;;4.03;2.58;;;;;;;29.82;nan;100610.47;4950014;29;20460;-72
2022/06/28 08:55:10;;;;;;;3.45;2.38;;;;;;;29.87;nan;100606.72;4948304;29;20050;-72
2022/06/28 08:57:36;;;;;;;4.78;2.38;;;;;;;29.92;nan;100625.44;4950289;29;20043;-71
2022/06/28 09:00:06;;;;;;;4.07;2.25;;;;;;;30.00;nan;100670.66;4948580;29;20047;-71
2022/06/28 09:02:32;;;;;;;7.95;2.60;;;;;;;30.04;nan;100586.56;4933161;29;20094;-72
2022/06/28 09:05:00;;;;;;;3.50;2.40;;;;;;;30.16;nan;100620.97;4947075;29;20381;-71
2022/06/28 09:07:26;;;;;;;4.60;2.10;;;;;;;30.16;nan;100635.34;4936252;29;20405;-70
2022/06/28 09:09:52;;;;;;;3.40;2.33;;;;;;;30.25;nan;100611.53;4949461;29;20478;-71
2022/06/28 09:12:19;;;;;;;2.35;2.15;;;;;;;30.32;nan;100638.06;4950039;29;20042;-71
2022/06/28 09:14:45;;;;;;;7.13;2.50;;;;;;;30.35;nan;100642.00;4951040;28;20037;-70
2022/06/28 09:17:20;;;;;;;2.90;2.22;;;;;;;30.48;nan;100621.72;4953169;29;20059;-71
2022/06/28 09:19:47;;;;;;;4.63;2.40;;;;;;;30.55;nan;100594.69;4953832;29;20035;-70
2022/06/28 09:22:29;;;;;;;3.35;2.90;;;;;;;30.56;nan;100595.50;4954081;29;20032;-71
2022/06/28 09:24:54;;;;;;;6.55;2.40;;;;;;;30.52;nan;100585.31;4953615;29;20030;-70
2022/06/28 09:27:29;;;;;;;3.17;2.60;;;;;;;30.58;nan;100585.84;4953435;29;20401;-70
2022/06/28 09:29:54;;;;;;;5.57;2.85;;;;;;;30.56;nan;100588.13;4936772;29;20047;-71
2022/06/28 09:32:31;;;;;;;4.57;2.10;;;;;;;30.58;nan;100590.50;4954650;29;20042;-71
2022/06/28 09:35:03;;;;;;;5.43;2.58;;;;;;;30.59;nan;100573.81;4954514;29;20039;-71
2022/06/28 09:37:40;;;;;;;3.75;2.50;;;;;;;30.68;nan;100590.72;4949281;29;20103;-71
2022/06/28 09:40:10;;;;;;;4.18;2.40;;;;;;;30.71;nan;100538.34;4955166;29;20389;-71
2022/06/28 09:42:36;;;;;;;6.82;2.40;;;;;;;30.82;nan;100581.28;4952692;29;20055;-71
2022/06/28 09:45:02;;;;;;;3.97;2.58;;;;;;;30.82;nan;100605.75;4938734;29;20031;-70
2022/06/28 09:47:28;;;;;;;3.17;2.42;;;;;;;30.85;nan;100627.59;4952789;29;20035;-71
2022/06/28 09:49:53;;;;;;;4.57;2.08;;;;;;;30.86;nan;100582.16;4955255;29;20038;-70
2022/06/28 09:52:26;;;;;;;5.35;2.30;;;;;;;30.88;nan;100563.56;4952585;29;20366;-70
2022/06/28 09:54:56;;;;;;;3.53;2.67;;;;;;;30.97;nan;100590.53;4955182;29;20485;-70
2022/06/28 09:57:22;;;;;;;4.78;2.42;;;;;;;31.01;nan;100553.31;4953808;29;20035;-72
2022/06/28 09:59:49;;;;;;;2.85;2.55;;;;;;;31.11;nan;100579.94;4953047;29;20038;-69
2022/06/28 10:02:17;;;;;;;4.55;2.55;;;;;;;31.12;nan;100521.66;4953031;29;20035;-70
2022/06/28 10:04:44;;;;;;;8.23;2.60;;;;;;;31.13;nan;100605.63;4951918;29;20054;-70
2022/06/28 10:07:10;;;;;;;4.47;2.33;;;;;;;31.22;nan;100585.56;4953234;29;20500;-70
2022/06/28 10:09:37;;;;;;;5.47;2.53;;;;;;;31.30;nan;100590.00;4951960;29;20043;-72
2022/06/28 10:15:01;;;;;;;2.53;2.15;;;;;;;31.43;nan;100547.09;4952605;29;20046;-70
2022/06/28 10:18:03;;;;;;;2.97;2.40;;;;;;;31.55;nan;100528.63;4952510;29;20066;-71
2022/06/28 10:20:35;;;;;;;4.68;2.40;;;;;;;31.66;nan;100501.59;4955826;29;20039;-72
2022/06/28 10:23:24;;;;;;;6.22;2.45;;;;;;;31.68;nan;100504.75;4951699;29;20027;-71
2022/06/28 10:26:04;;;;;;;4.78;2.50;;;;;;;31.63;nan;100523.28;4954925;29;20508;-70
2022/06/28 10:28:39;;;;;;;2.90;2.30;;;;;;;31.59;nan;100520.53;4949835;28;20485;-69
2022/06/28 10:31:23;;;;;;;3.25;2.45;;;;;;;31.55;nan;100516.97;4936534;29;20035;-70
2022/06/28 10:33:53;;;;;;;8.70;3.10;;;;;;;31.55;nan;100478.84;4951167;29;20053;-70
2022/06/28 10:36:20;;;;;;;4.97;2.17;;;;;;;31.52;nan;100529.38;4937499;29;20418;-69
2022/06/28 10:39:01;;;;;;;4.18;2.53;;;;;;;31.54;nan;100494.41;4954397;29;20122;-69
2022/06/28 10:41:49;;;;;;;3.38;2.30;;;;;;;31.53;nan;100492.81;4948609;29;20043;-69
2022/06/28 10:44:18;;;;;;;5.65;2.38;;;;;;;31.52;nan;100491.25;4945894;29;20041;-69
2022/06/28 10:47:05;;;;;;;2.85;2.20;;;;;;;31.48;nan;100493.13;4948860;29;20097;-73
2022/06/28 10:49:45;;;;;;;4.00;2.45;;;;;;;31.46;nan;100491.94;4933775;29;20043;-72
2022/06/28 10:52:12;;;;;;;5.93;2.17;;;;;;;31.48;nan;100505.97;4932900;29;20034;-73
2022/06/28 10:54:38;;;;;;;3.95;2.72;;;;;;;31.42;nan;100505.50;4952349;29;20509;-69
2022/06/28 10:57:30;;;;;;;4.80;2.10;;;;;;;31.45;nan;100512.91;4947882;29;20066;-73
2022/06/28 10:59:58;;;;;;;3.47;2.45;;;;;;;31.43;nan;100552.53;4938201;29;20047;-71
2022/06/28 11:02:45;;;;;;;8.53;2.30;;;;;;;31.48;nan;100572.06;4951835;29;20031;-69
2022/06/28 11:05:10;;;;;;;6.82;2.40;;;;;;;31.43;nan;100517.94;4951497;29;20052;-72
2022/06/28 11:07:39;;;;;;;2.70;2.40;;;;;;;31.53;nan;100524.69;4953806;29;20123;-70
2022/06/28 11:10:08;;;;;;;2.83;2.00;;;;;;;31.55;nan;100542.25;4951933;29;20397;-70
2022/06/28 11:12:35;;;;;;;4.75;2.60;;;;;;;31.58;nan;100559.78;4950841;29;20114;-72
2022/06/28 11:15:02;;;;;;;8.43;2.15;;;;;;;31.62;nan;100565.28;4952427;29;20133;-72
2022/06/28 11:17:37;;;;;;;5.72;2.45;;;;;;;31.64;nan;100563.78;4954651;29;20046;-73
2022/06/28 11:20:03;;;;;;;6.93;2.17;;;;;;;31.69;nan;100549.06;4947594;29;20381;-73
2022/06/28 11:22:49;;;;;;;3.65;2.28;;;;;;;31.79;nan;100564.78;4953540;29;20122;-73
2022/06/28 11:25:22;;;;;;;4.30;2.17;;;;;;;31.82;nan;100547.72;4951256;29;20066;-73
2022/06/28 11:27:56;;;;;;;2.78;2.20;;;;;;;31.85;nan;100562.56;4952574;29;20031;-72
2022/06/28 11:30:27;;;;;;;3.33;1.98;;;;;;;31.87;nan;100528.34;4932876;29;20129;-72
2022/06/28 11:32:59;;;;;;;4.07;1.90;;;;;;;31.89;nan;100605.00;4952049;28;20043;-73
2022/06/28 11:35:30;;;;;;;4.30;2.22;;;;;;;31.90;nan;100543.19;4951398;29;20031;-72
2022/06/28 11:37:57;;;;;;;5.22;2.40;;;;;;;31.92;nan;100552.56;4953085;28;20051;-74
2022/06/28 11:40:29;;;;;;;5.45;2.30;;;;;;;31.91;nan;100561.06;4948975;29;20031;-72
2022/06/28 11:43:12;;;;;;;4.63;2.30;;;;;;;31.88;nan;100519.03;4934069;29;20062;-72
2022/06/28 11:45:48;;;;;;;3.40;2.40;;;;;;;31.90;nan;100592.97;4950175;29;20515;-72
2022/06/28 11:48:16;;;;;;;5.18;2.20;;;;;;;32.00;nan;100548.03;4946196;29;20041;-73
2022/06/28 11:50:46;;;;;;;3.55;2.25;;;;;;;32.07;nan;100537.22;4950549;29;20046;-72
2022/06/28 11:53:14;;;;;;;2.33;1.85;;;;;;;32.13;nan;100563.00;4948856;29;20044;-73
2022/06/28 11:55:43;;;;;;;2.70;2.15;;;;;;;32.24;nan;100560.41;4951856;29;20039;-73
2022/06/28 11:58:37;;;;;;;3.97;1.83;;;;;;;32.29;nan;100557.38;4953192;29;20043;-71
2022/06/28 12:01:09;;;;;;;6.40;2.22;;;;;;;32.42;nan;100557.91;4947039;29;20035;-74
2022/06/28 12:03:41;;;;;;;3.35;2.10;;;;;;;32.51;nan;100539.38;4953244;29;20039;-73